EDV1246 KCLE-KDTW
Flight info
| Callsign | EDV1246 |
|---|---|
| Flight time | 0h 26m |
| Altitude | 14000 |
| Route | DJB BONZZ BONZZ2 |
| Aircraft | CRJ9/M-SDFGIRWY/S |
Departure
| Time | 2026-05-05 01:08 |
|---|---|
| Airport | Cleveland Hopkins International Airport (KCLE) |
Arrival
| Time | 2026-05-05 01:34 |
|---|---|
| Airport | Detroit Metropolitan Wayne County Airport (KDTW) |
| Time | Latitude | Longitude | Altitude | Speed | Heading |
|---|---|---|---|---|---|
| 2026-05-05 00:34 | 41.41320 | -81.83903 | 774 ft | 0 kts | 103° |
| 2026-05-05 00:58 | 41.41322 | -81.83915 | 770 ft | 4 kts | 103° |
| 2026-05-05 00:59 | 41.41328 | -81.83954 | 784 ft | 4 kts | 101° |
| 2026-05-05 00:59 | 41.41330 | -81.83969 | 784 ft | 4 kts | 68° |
| 2026-05-05 00:59 | 41.41319 | -81.83987 | 784 ft | 4 kts | 42° |
| 2026-05-05 00:59 | 41.41300 | -81.83997 | 784 ft | 3 kts | 11° |
| 2026-05-05 01:00 | 41.41274 | -81.84004 | 782 ft | 4 kts | 11° |
| 2026-05-05 01:00 | 41.41268 | -81.84006 | 782 ft | 0 kts | 11° |
| 2026-05-05 01:04 | 41.41274 | -81.84004 | 782 ft | 5 kts | 11° |
| 2026-05-05 01:04 | 41.41352 | -81.83990 | 784 ft | 0 kts | 339° |
| 2026-05-05 01:04 | 41.41353 | -81.83990 | 784 ft | 0 kts | 328° |
| 2026-05-05 01:05 | 41.41367 | -81.84024 | 783 ft | 9 kts | 281° |
| 2026-05-05 01:05 | 41.41369 | -81.84119 | 782 ft | 10 kts | 268° |
| 2026-05-05 01:05 | 41.41384 | -81.84185 | 782 ft | 0 kts | 322° |
| 2026-05-05 01:05 | 41.41385 | -81.84185 | 782 ft | 1 kts | 348° |
| 2026-05-05 01:06 | 41.41404 | -81.84179 | 781 ft | 6 kts | 27° |
| 2026-05-05 01:06 | 41.41444 | -81.84151 | 781 ft | 0 kts | 12° |
| 2026-05-05 01:06 | 41.41454 | -81.84151 | 781 ft | 4 kts | 352° |
| 2026-05-05 01:06 | 41.41493 | -81.84196 | 781 ft | 8 kts | 302° |
| 2026-05-05 01:07 | 41.41487 | -81.84275 | 778 ft | 12 kts | 238° |
| 2026-05-05 01:07 | 41.41405 | -81.84403 | 779 ft | 39 kts | 229° |
| 2026-05-05 01:07 | 41.41057 | -81.84949 | 781 ft | 114 kts | 230° |
| 2026-05-05 01:07 | 41.40423 | -81.85970 | 856 ft | 166 kts | 231° |
| 2026-05-05 01:08 | 41.39692 | -81.87263 | 1481 ft | 183 kts | 231° |
| 2026-05-05 01:08 | 41.38960 | -81.88614 | 2386 ft | 178 kts | 233° |
| 2026-05-05 01:08 | 41.38356 | -81.90028 | 3161 ft | 190 kts | 257° |
| 2026-05-05 01:08 | 41.38645 | -81.91887 | 3936 ft | 219 kts | 284° |
| 2026-05-05 01:09 | 41.39066 | -81.93875 | 4911 ft | 228 kts | 274° |
| 2026-05-05 01:09 | 41.39136 | -81.96092 | 5478 ft | 256 kts | 265° |
| 2026-05-05 01:09 | 41.38987 | -81.98513 | 5366 ft | 255 kts | 260° |
| 2026-05-05 01:09 | 41.38694 | -82.00737 | 5466 ft | 234 kts | 256° |
| 2026-05-05 01:10 | 41.38335 | -82.02819 | 5861 ft | 226 kts | 255° |
| 2026-05-05 01:10 | 41.38012 | -82.04833 | 6250 ft | 219 kts | 266° |
| 2026-05-05 01:10 | 41.38350 | -82.06783 | 6781 ft | 223 kts | 291° |
| 2026-05-05 01:10 | 41.39171 | -82.08607 | 7375 ft | 236 kts | 295° |
| 2026-05-05 01:11 | 41.40085 | -82.10515 | 7977 ft | 251 kts | 296° |
| 2026-05-05 01:11 | 41.41056 | -82.12514 | 8617 ft | 260 kts | 297° |
| 2026-05-05 01:11 | 41.42074 | -82.14528 | 9255 ft | 263 kts | 298° |
| 2026-05-05 01:11 | 41.43114 | -82.16556 | 9871 ft | 266 kts | 298° |
| 2026-05-05 01:12 | 41.44153 | -82.18607 | 10453 ft | 268 kts | 298° |
| 2026-05-05 01:12 | 41.45175 | -82.20665 | 11028 ft | 270 kts | 298° |
| 2026-05-05 01:12 | 41.46194 | -82.22769 | 11619 ft | 269 kts | 297° |
| 2026-05-05 01:12 | 41.47174 | -82.24891 | 12224 ft | 267 kts | 296° |
| 2026-05-05 01:13 | 41.48142 | -82.27005 | 12843 ft | 267 kts | 298° |
| 2026-05-05 01:13 | 41.49169 | -82.29074 | 13441 ft | 270 kts | 299° |
| 2026-05-05 01:13 | 41.50254 | -82.31224 | 13784 ft | 290 kts | 300° |
| 2026-05-05 01:13 | 41.51432 | -82.33537 | 13957 ft | 314 kts | 300° |
| 2026-05-05 01:14 | 41.52687 | -82.35979 | 14046 ft | 317 kts | 301° |
| 2026-05-05 01:14 | 41.53966 | -82.38396 | 14068 ft | 321 kts | 301° |
| 2026-05-05 01:14 | 41.55253 | -82.40859 | 14078 ft | 326 kts | 300° |
| 2026-05-05 01:14 | 41.56534 | -82.43362 | 14077 ft | 324 kts | 300° |
| 2026-05-05 01:15 | 41.57794 | -82.45839 | 14068 ft | 319 kts | 300° |
| 2026-05-05 01:15 | 41.59037 | -82.48284 | 14062 ft | 317 kts | 300° |
| 2026-05-05 01:15 | 41.60260 | -82.50690 | 14052 ft | 318 kts | 300° |
| 2026-05-05 01:15 | 41.61502 | -82.53137 | 14052 ft | 318 kts | 300° |
| 2026-05-05 01:16 | 41.62746 | -82.55591 | 14047 ft | 319 kts | 300° |
| 2026-05-05 01:16 | 41.63991 | -82.58050 | 14048 ft | 320 kts | 300° |
| 2026-05-05 01:16 | 41.65236 | -82.60515 | 14049 ft | 320 kts | 300° |
| 2026-05-05 01:16 | 41.66486 | -82.62988 | 14049 ft | 321 kts | 300° |
| 2026-05-05 01:17 | 41.67732 | -82.65458 | 14050 ft | 321 kts | 300° |
| 2026-05-05 01:17 | 41.68983 | -82.67936 | 14048 ft | 321 kts | 300° |
| 2026-05-05 01:17 | 41.70235 | -82.70418 | 14046 ft | 322 kts | 300° |
| 2026-05-05 01:17 | 41.71486 | -82.72900 | 14049 ft | 322 kts | 300° |
| 2026-05-05 01:18 | 41.72737 | -82.75383 | 14041 ft | 322 kts | 300° |
| 2026-05-05 01:18 | 41.73991 | -82.77868 | 14042 ft | 322 kts | 300° |
| 2026-05-05 01:18 | 41.75276 | -82.80330 | 14044 ft | 324 kts | 303° |
| 2026-05-05 01:18 | 41.76732 | -82.82642 | 14064 ft | 326 kts | 307° |
| 2026-05-05 01:19 | 41.78289 | -82.84860 | 14057 ft | 327 kts | 309° |
| 2026-05-05 01:19 | 41.79874 | -82.87076 | 13803 ft | 331 kts | 309° |
| 2026-05-05 01:19 | 41.81430 | -82.89255 | 13294 ft | 317 kts | 308° |
| 2026-05-05 01:19 | 41.82901 | -82.91378 | 12760 ft | 303 kts | 307° |
| 2026-05-05 01:20 | 41.84288 | -82.93404 | 12219 ft | 288 kts | 307° |
| 2026-05-05 01:20 | 41.85611 | -82.95341 | 11685 ft | 276 kts | 307° |
| 2026-05-05 01:20 | 41.86901 | -82.97227 | 11308 ft | 275 kts | 307° |
| 2026-05-05 01:20 | 41.88190 | -82.99107 | 11149 ft | 271 kts | 306° |
| 2026-05-05 01:21 | 41.89436 | -83.00973 | 11073 ft | 265 kts | 306° |
| 2026-05-05 01:21 | 41.90655 | -83.02790 | 11040 ft | 259 kts | 306° |
| 2026-05-05 01:21 | 41.91846 | -83.04592 | 11020 ft | 261 kts | 306° |
| 2026-05-05 01:21 | 41.93071 | -83.06430 | 11017 ft | 267 kts | 306° |
| 2026-05-05 01:22 | 41.94324 | -83.08306 | 11020 ft | 272 kts | 306° |
| 2026-05-05 01:22 | 41.95596 | -83.10202 | 11019 ft | 275 kts | 307° |
| 2026-05-05 01:22 | 41.96888 | -83.12122 | 11015 ft | 278 kts | 307° |
| 2026-05-05 01:22 | 41.98195 | -83.14065 | 11026 ft | 281 kts | 307° |
| 2026-05-05 01:23 | 41.99494 | -83.15995 | 11037 ft | 283 kts | 307° |
| 2026-05-05 01:23 | 42.00816 | -83.17972 | 11037 ft | 286 kts | 307° |
| 2026-05-05 01:23 | 42.02153 | -83.19966 | 11016 ft | 288 kts | 307° |
| 2026-05-05 01:23 | 42.03499 | -83.21968 | 10631 ft | 285 kts | 307° |
| 2026-05-05 01:24 | 42.04821 | -83.23907 | 10133 ft | 277 kts | 308° |
| 2026-05-05 01:24 | 42.06122 | -83.25801 | 9576 ft | 273 kts | 309° |
| 2026-05-05 01:24 | 42.07684 | -83.27206 | 9225 ft | 274 kts | 339° |
| 2026-05-05 01:24 | 42.09571 | -83.27345 | 9107 ft | 274 kts | 358° |
| 2026-05-05 01:25 | 42.11466 | -83.27048 | 9057 ft | 274 kts | 3° |
| 2026-05-05 01:25 | 42.13311 | -83.26379 | 9025 ft | 279 kts | 19° |
| 2026-05-05 01:25 | 42.15009 | -83.25114 | 9018 ft | 279 kts | 27° |
| 2026-05-05 01:25 | 42.16653 | -83.23683 | 8619 ft | 284 kts | 28° |
| 2026-05-05 01:26 | 42.18320 | -83.22230 | 8049 ft | 285 kts | 27° |
| 2026-05-05 01:26 | 42.20014 | -83.20836 | 7492 ft | 285 kts | 25° |
| 2026-05-05 01:26 | 42.21729 | -83.19504 | 6971 ft | 284 kts | 24° |
| 2026-05-05 01:26 | 42.23456 | -83.18233 | 6479 ft | 280 kts | 22° |
| 2026-05-05 01:27 | 42.25149 | -83.17017 | 6212 ft | 269 kts | 22° |
| 2026-05-05 01:27 | 42.26772 | -83.15860 | 6088 ft | 259 kts | 22° |
| 2026-05-05 01:27 | 42.28346 | -83.14737 | 6023 ft | 255 kts | 22° |
| 2026-05-05 01:27 | 42.29913 | -83.13617 | 5999 ft | 254 kts | 22° |
| 2026-05-05 01:28 | 42.31472 | -83.12500 | 5988 ft | 253 kts | 21° |
| 2026-05-05 01:28 | 42.33092 | -83.11813 | 5952 ft | 236 kts | 350° |
| 2026-05-05 01:28 | 42.34582 | -83.12429 | 5528 ft | 220 kts | 313° |
| 2026-05-05 01:28 | 42.35685 | -83.13827 | 5031 ft | 217 kts | 306° |
| 2026-05-05 01:29 | 42.36721 | -83.15315 | 4531 ft | 218 kts | 304° |
| 2026-05-05 01:29 | 42.37592 | -83.16928 | 4027 ft | 206 kts | 279° |
| 2026-05-05 01:29 | 42.37505 | -83.18723 | 3598 ft | 190 kts | 248° |
| 2026-05-05 01:29 | 42.37003 | -83.20365 | 3316 ft | 186 kts | 245° |
| 2026-05-05 01:30 | 42.36460 | -83.21876 | 3161 ft | 175 kts | 237° |
| 2026-05-05 01:30 | 42.35464 | -83.22777 | 3091 ft | 178 kts | 205° |
| 2026-05-05 01:30 | 42.34383 | -83.23456 | 3039 ft | 165 kts | 218° |
| 2026-05-05 01:30 | 42.33495 | -83.24344 | 3006 ft | 153 kts | 224° |
| 2026-05-05 01:31 | 42.32714 | -83.25225 | 2988 ft | 141 kts | 220° |
| 2026-05-05 01:31 | 42.31897 | -83.25917 | 2807 ft | 140 kts | 217° |
| 2026-05-05 01:31 | 42.31089 | -83.26547 | 2688 ft | 132 kts | 217° |
| 2026-05-05 01:31 | 42.30301 | -83.27160 | 2496 ft | 129 kts | 216° |
| 2026-05-05 01:32 | 42.29530 | -83.27756 | 2299 ft | 125 kts | 214° |
| 2026-05-05 01:32 | 42.28800 | -83.28292 | 2170 ft | 114 kts | 213° |
| 2026-05-05 01:32 | 42.28132 | -83.28778 | 1964 ft | 105 kts | 214° |
| 2026-05-05 01:32 | 42.27487 | -83.29275 | 1858 ft | 100 kts | 213° |
| 2026-05-05 01:33 | 42.26907 | -83.29710 | 1718 ft | 91 kts | 214° |
| 2026-05-05 01:33 | 42.26364 | -83.30136 | 1415 ft | 103 kts | 215° |
| 2026-05-05 01:33 | 42.25690 | -83.30669 | 1466 ft | 115 kts | 210° |
| 2026-05-05 01:33 | 42.24918 | -83.31215 | 1403 ft | 131 kts | 210° |
| 2026-05-05 01:34 | 42.24104 | -83.31789 | 1280 ft | 122 kts | 209° |
| 2026-05-05 01:34 | 42.23472 | -83.32274 | 1021 ft | 88 kts | 211° |
| 2026-05-05 01:34 | 42.23334 | -83.32420 | 651 ft | 0 kts | 222° |